sensor_id;sensor_type;location;lat;lon;timestamp;pressure;altitude;pressure_sealevel;temperature;humidity
44001;BME280;29660;42.892;24.710;2023-07-08T00:03:43;96988.47;;;20.65;100.00
44001;BME280;29660;42.892;24.710;2023-07-08T00:09:10;96989.59;;;20.48;100.00
44001;BME280;29660;42.892;24.710;2023-07-08T00:14:33;97093.06;;;21.01;100.00
44001;BME280;29660;42.892;24.710;2023-07-08T00:19:55;97094.81;;;21.09;100.00
44001;BME280;29660;42.892;24.710;2023-07-08T00:25:18;97087.28;;;21.18;99.43
44001;BME280;29660;42.892;24.710;2023-07-08T00:30:43;97086.47;;;21.33;99.69
44001;BME280;29660;42.892;24.710;2023-07-08T00:36:13;97088.38;;;21.33;98.49
44001;BME280;29660;42.892;24.710;2023-07-08T00:41:38;96941.28;;;20.50;97.73
44001;BME280;29660;42.892;24.710;2023-07-08T00:47:05;96969.28;;;20.73;97.41
44001;BME280;29660;42.892;24.710;2023-07-08T00:52:29;97088.41;;;21.52;96.96
44001;BME280;29660;42.892;24.710;2023-07-08T00:57:51;97027.47;;;21.11;96.78
44001;BME280;29660;42.892;24.710;2023-07-08T01:03:14;97071.59;;;21.27;97.48
44001;BME280;29660;42.892;24.710;2023-07-08T01:08:36;97088.78;;;21.51;97.60
44001;BME280;29660;42.892;24.710;2023-07-08T01:13:59;97091.56;;;21.54;98.23
44001;BME280;29660;42.892;24.710;2023-07-08T01:19:23;97092.34;;;21.55;98.71
44001;BME280;29660;42.892;24.710;2023-07-08T01:24:54;97095.69;;;21.48;99.02
44001;BME280;29660;42.892;24.710;2023-07-08T01:30:16;96875.28;;;20.07;98.48
44001;BME280;29660;42.892;24.710;2023-07-08T01:35:38;96929.22;;;20.31;98.48
44001;BME280;29660;42.892;24.710;2023-07-08T01:41:00;97087.41;;;21.41;98.44
44001;BME280;29660;42.892;24.710;2023-07-08T01:46:24;97093.03;;;21.32;99.04
44001;BME280;29660;42.892;24.710;2023-07-08T01:51:48;97090.13;;;21.25;99.35
44001;BME280;29660;42.892;24.710;2023-07-08T01:57:11;96888.03;;;19.75;100.00
44001;BME280;29660;42.892;24.710;2023-07-08T02:02:34;97110.03;;;20.98;100.00
44001;BME280;29660;42.892;24.710;2023-07-08T02:07:57;97109.72;;;20.83;100.00
44001;BME280;29660;42.892;24.710;2023-07-08T02:13:20;97130.34;;;20.72;100.00
44001;BME280;29660;42.892;24.710;2023-07-08T02:18:43;96998.06;;;19.99;100.00
44001;BME280;29660;42.892;24.710;2023-07-08T02:24:06;97105.78;;;20.65;100.00
44001;BME280;29660;42.892;24.710;2023-07-08T02:29:30;97078.81;;;20.41;100.00
44001;BME280;29660;42.892;24.710;2023-07-08T02:34:53;97121.59;;;20.63;100.00
44001;BME280;29660;42.892;24.710;2023-07-08T02:40:16;97121.06;;;20.57;100.00
44001;BME280;29660;42.892;24.710;2023-07-08T02:45:38;97114.16;;;20.60;100.00
44001;BME280;29660;42.892;24.710;2023-07-08T02:51:02;97118.34;;;20.57;100.00
44001;BME280;29660;42.892;24.710;2023-07-08T02:56:24;97114.41;;;20.55;100.00
44001;BME280;29660;42.892;24.710;2023-07-08T03:01:48;97114.03;;;20.41;100.00
44001;BME280;29660;42.892;24.710;2023-07-08T03:07:12;97109.00;;;20.55;100.00
44001;BME280;29660;42.892;24.710;2023-07-08T03:12:34;97115.47;;;20.50;100.00
44001;BME280;29660;42.892;24.710;2023-07-08T03:17:57;97125.50;;;20.50;100.00
44001;BME280;29660;42.892;24.710;2023-07-08T03:23:22;97055.00;;;20.02;100.00
44001;BME280;29660;42.892;24.710;2023-07-08T03:28:47;97027.81;;;19.83;100.00
44001;BME280;29660;42.892;24.710;2023-07-08T03:34:11;97052.13;;;20.11;100.00
44001;BME280;29660;42.892;24.710;2023-07-08T03:39:34;97117.13;;;20.55;100.00
44001;BME280;29660;42.892;24.710;2023-07-08T03:44:56;97037.19;;;20.01;100.00
44001;BME280;29660;42.892;24.710;2023-07-08T03:50:22;97133.84;;;20.57;100.00
44001;BME280;29660;42.892;24.710;2023-07-08T03:55:45;97153.47;;;20.54;100.00
44001;BME280;29660;42.892;24.710;2023-07-08T04:01:18;97004.28;;;19.71;100.00
44001;BME280;29660;42.892;24.710;2023-07-08T04:06:43;96987.75;;;19.60;100.00
44001;BME280;29660;42.892;24.710;2023-07-08T04:12:08;97132.41;;;20.63;100.00
44001;BME280;29660;42.892;24.710;2023-07-08T04:17:30;97126.13;;;20.59;100.00
44001;BME280;29660;42.892;24.710;2023-07-08T04:22:53;97148.94;;;21.21;98.57
44001;BME280;29660;42.892;24.710;2023-07-08T04:28:15;97131.19;;;21.40;99.01
44001;BME280;29660;42.892;24.710;2023-07-08T04:33:38;97011.44;;;20.71;97.29
44001;BME280;29660;42.892;24.710;2023-07-08T04:39:04;97147.91;;;21.61;96.28
44001;BME280;29660;42.892;24.710;2023-07-08T04:44:27;97146.06;;;21.85;96.89
44001;BME280;29660;42.892;24.710;2023-07-08T04:49:49;97065.56;;;21.53;94.09
44001;BME280;29660;42.892;24.710;2023-07-08T04:55:12;97122.88;;;22.26;92.18
44001;BME280;29660;42.892;24.710;2023-07-08T05:00:35;96982.50;;;22.34;83.55
44001;BME280;29660;42.892;24.710;2023-07-08T05:05:57;97097.88;;;23.65;80.67
44001;BME280;29660;42.892;24.710;2023-07-08T05:11:19;97095.47;;;23.60;79.25
44001;BME280;29660;42.892;24.710;2023-07-08T05:16:42;97083.22;;;24.07;75.79
44001;BME280;29660;42.892;24.710;2023-07-08T05:22:04;97084.19;;;24.63;73.96
44001;BME280;29660;42.892;24.710;2023-07-08T05:27:26;97095.31;;;24.88;71.02
44001;BME280;29660;42.892;24.710;2023-07-08T05:32:49;97095.22;;;25.29;67.70
44001;BME280;29660;42.892;24.710;2023-07-08T05:38:11;97096.81;;;25.33;67.07
44001;BME280;29660;42.892;24.710;2023-07-08T05:43:33;97105.22;;;25.10;64.06
44001;BME280;29660;42.892;24.710;2023-07-08T05:48:56;97106.50;;;25.24;66.97
44001;BME280;29660;42.892;24.710;2023-07-08T05:54:21;97107.13;;;25.06;65.58
44001;BME280;29660;42.892;24.710;2023-07-08T05:59:43;97029.63;;;23.81;69.79
44001;BME280;29660;42.892;24.710;2023-07-08T06:05:05;97112.28;;;23.96;70.69
44001;BME280;29660;42.892;24.710;2023-07-08T06:10:28;97117.53;;;24.45;69.48
44001;BME280;29660;42.892;24.710;2023-07-08T06:15:50;97116.50;;;24.61;71.86
44001;BME280;29660;42.892;24.710;2023-07-08T06:21:12;97119.94;;;24.20;68.43
44001;BME280;29660;42.892;24.710;2023-07-08T06:26:34;97126.28;;;23.94;70.98
44001;BME280;29660;42.892;24.710;2023-07-08T06:31:57;96738.41;;;21.10;75.05
44001;BME280;29660;42.892;24.710;2023-07-08T06:37:19;97122.31;;;23.58;76.13
44001;BME280;29660;42.892;24.710;2023-07-08T06:42:41;97119.25;;;23.63;75.59
44001;BME280;29660;42.892;24.710;2023-07-08T06:48:11;97130.53;;;23.92;73.61
44001;BME280;29660;42.892;24.710;2023-07-08T06:53:35;97126.88;;;23.81;74.55
44001;BME280;29660;42.892;24.710;2023-07-08T06:58:57;97118.72;;;24.14;69.36
44001;BME280;29660;42.892;24.710;2023-07-08T07:04:19;97083.00;;;23.86;72.87
44001;BME280;29660;42.892;24.710;2023-07-08T07:09:41;97126.66;;;24.27;74.53
44001;BME280;29660;42.892;24.710;2023-07-08T07:15:04;97037.69;;;23.70;71.61
44001;BME280;29660;42.892;24.710;2023-07-08T07:20:27;97022.22;;;23.48;71.34
44001;BME280;29660;42.892;24.710;2023-07-08T07:25:49;97149.94;;;24.20;74.37
44001;BME280;29660;42.892;24.710;2023-07-08T07:31:12;97159.81;;;23.98;75.00
44001;BME280;29660;42.892;24.710;2023-07-08T07:36:34;97143.94;;;24.08;73.19
44001;BME280;29660;42.892;24.710;2023-07-08T07:41:56;97198.09;;;24.13;75.01
44001;BME280;29660;42.892;24.710;2023-07-08T07:47:18;97184.41;;;23.75;72.87
44001;BME280;29660;42.892;24.710;2023-07-08T07:52:40;97098.16;;;23.26;75.51
44001;BME280;29660;42.892;24.710;2023-07-08T07:58:03;97179.16;;;23.90;74.52
44001;BME280;29660;42.892;24.710;2023-07-08T08:03:26;97130.19;;;24.31;71.85
44001;BME280;29660;42.892;24.710;2023-07-08T08:08:49;97096.88;;;24.11;71.33
44001;BME280;29660;42.892;24.710;2023-07-08T08:14:11;97075.41;;;23.42;71.75
44001;BME280;29660;42.892;24.710;2023-07-08T08:19:33;97179.03;;;24.43;73.67
44001;BME280;29660;42.892;24.710;2023-07-08T08:24:55;97178.69;;;24.85;74.65
44001;BME280;29660;42.892;24.710;2023-07-08T08:30:18;97084.63;;;24.68;67.00
44001;BME280;29660;42.892;24.710;2023-07-08T08:35:44;97173.72;;;25.46;63.59
44001;BME280;29660;42.892;24.710;2023-07-08T08:41:14;97193.03;;;25.19;66.90
44001;BME280;29660;42.892;24.710;2023-07-08T08:47:06;97196.28;;;24.95;68.11
44001;BME280;29660;42.892;24.710;2023-07-08T08:52:34;97200.47;;;24.44;68.54
44001;BME280;29660;42.892;24.710;2023-07-08T08:58:07;97115.97;;;24.48;67.12
44001;BME280;29660;42.892;24.710;2023-07-08T09:09:26;97114.53;;;23.87;70.12
44001;BME280;29660;42.892;24.710;2023-07-08T09:14:50;97194.06;;;25.52;68.38
44001;BME280;29660;42.892;24.710;2023-07-08T09:20:32;97202.06;;;25.86;64.98
44001;BME280;29660;42.892;24.710;2023-07-08T09:26:05;97179.63;;;25.07;69.99
44001;BME280;29660;42.892;24.710;2023-07-08T09:31:31;97124.06;;;25.30;66.08
44001;BME280;29660;42.892;24.710;2023-07-08T09:36:54;97181.19;;;26.33;66.83
44001;BME280;29660;42.892;24.710;2023-07-08T09:42:16;97170.25;;;26.26;64.01
44001;BME280;29660;42.892;24.710;2023-07-08T09:47:39;97151.16;;;26.43;61.89
44001;BME280;29660;42.892;24.710;2023-07-08T09:53:02;97142.16;;;26.43;61.70
44001;BME280;29660;42.892;24.710;2023-07-08T09:58:32;97113.66;;;25.50;66.31
44001;BME280;29660;42.892;24.710;2023-07-08T10:03:58;97138.50;;;25.96;63.88
44001;BME280;29660;42.892;24.710;2023-07-08T10:09:24;97146.94;;;25.73;68.01
44001;BME280;29660;42.892;24.710;2023-07-08T10:14:50;97108.13;;;25.35;66.78
44001;BME280;29660;42.892;24.710;2023-07-08T10:20:14;97142.75;;;24.80;83.57
44001;BME280;29660;42.892;24.710;2023-07-08T10:25:46;97042.44;;;23.47;88.40
44001;BME280;29660;42.892;24.710;2023-07-08T10:31:33;97153.03;;;24.19;84.56
44001;BME280;29660;42.892;24.710;2023-07-08T10:37:21;97155.69;;;24.45;93.26
44001;BME280;29660;42.892;24.710;2023-07-08T11:05:59;97113.25;;;26.42;70.77
44001;BME280;29660;42.892;24.710;2023-07-08T11:11:51;97114.78;;;26.25;73.84
44001;BME280;29660;42.892;24.710;2023-07-08T11:17:26;97078.88;;;24.81;75.02
44001;BME280;29660;42.892;24.710;2023-07-08T11:22:54;96996.94;;;23.47;83.93
44001;BME280;29660;42.892;24.710;2023-07-08T11:28:21;97124.72;;;23.37;97.72
44001;BME280;29660;42.892;24.710;2023-07-08T11:33:45;97201.59;;;21.87;100.00
44001;BME280;29660;42.892;24.710;2023-07-08T11:39:38;97284.41;;;21.30;100.00
44001;BME280;29660;42.892;24.710;2023-07-08T11:45:08;97268.91;;;20.99;100.00
44001;BME280;29660;42.892;24.710;2023-07-08T11:50:43;97269.19;;;20.81;100.00
44001;BME280;29660;42.892;24.710;2023-07-08T11:56:21;97173.75;;;20.16;100.00
44001;BME280;29660;42.892;24.710;2023-07-08T12:01:51;97165.47;;;19.97;100.00
44001;BME280;29660;42.892;24.710;2023-07-08T12:07:19;97224.19;;;20.08;100.00
44001;BME280;29660;42.892;24.710;2023-07-08T12:12:44;97277.34;;;20.53;100.00
44001;BME280;29660;42.892;24.710;2023-07-08T12:18:20;97201.41;;;20.38;100.00
44001;BME280;29660;42.892;24.710;2023-07-08T12:23:45;97219.84;;;20.60;100.00
44001;BME280;29660;42.892;24.710;2023-07-08T12:29:11;97277.78;;;21.43;100.00
44001;BME280;29660;42.892;24.710;2023-07-08T12:34:34;97276.28;;;21.77;100.00
44001;BME280;29660;42.892;24.710;2023-07-08T12:39:58;97298.09;;;22.16;100.00
44001;BME280;29660;42.892;24.710;2023-07-08T12:45:27;97137.50;;;21.63;100.00
44001;BME280;29660;42.892;24.710;2023-07-08T12:50:51;97172.97;;;22.09;100.00
44001;BME280;29660;42.892;24.710;2023-07-08T12:56:14;97204.78;;;22.90;100.00
44001;BME280;29660;42.892;24.710;2023-07-08T13:01:37;97259.16;;;23.78;100.00
44001;BME280;29660;42.892;24.710;2023-07-08T13:07:01;97220.22;;;23.77;100.00
44001;BME280;29660;42.892;24.710;2023-07-08T13:12:25;97166.88;;;23.50;100.00
44001;BME280;29660;42.892;24.710;2023-07-08T13:17:48;97231.78;;;24.28;100.00
44001;BME280;29660;42.892;24.710;2023-07-08T13:23:11;97202.47;;;24.17;100.00
44001;BME280;29660;42.892;24.710;2023-07-08T13:28:38;97136.59;;;23.51;100.00
44001;BME280;29660;42.892;24.710;2023-07-08T13:34:09;97222.75;;;23.90;100.00
44001;BME280;29660;42.892;24.710;2023-07-08T13:39:33;97252.81;;;23.47;100.00
44001;BME280;29660;42.892;24.710;2023-07-08T13:44:58;97246.03;;;23.38;100.00
44001;BME280;29660;42.892;24.710;2023-07-08T13:50:26;97227.91;;;23.22;100.00
44001;BME280;29660;42.892;24.710;2023-07-08T13:55:57;97149.31;;;22.48;100.00
44001;BME280;29660;42.892;24.710;2023-07-08T14:01:23;97241.44;;;23.42;100.00
44001;BME280;29660;42.892;24.710;2023-07-08T14:06:46;97248.94;;;23.48;100.00
44001;BME280;29660;42.892;24.710;2023-07-08T14:12:09;97147.84;;;22.77;100.00
44001;BME280;29660;42.892;24.710;2023-07-08T14:17:31;97202.03;;;23.09;100.00
44001;BME280;29660;42.892;24.710;2023-07-08T14:22:54;97189.41;;;22.97;100.00
44001;BME280;29660;42.892;24.710;2023-07-08T14:28:16;97222.09;;;23.47;100.00
44001;BME280;29660;42.892;24.710;2023-07-08T14:33:38;97148.53;;;23.17;100.00
44001;BME280;29660;42.892;24.710;2023-07-08T14:39:01;97203.41;;;23.98;100.00
44001;BME280;29660;42.892;24.710;2023-07-08T14:44:35;97217.34;;;23.93;100.00
44001;BME280;29660;42.892;24.710;2023-07-08T14:49:58;97216.72;;;24.07;98.50
44001;BME280;29660;42.892;24.710;2023-07-08T14:55:20;97207.75;;;24.37;100.00
44001;BME280;29660;42.892;24.710;2023-07-08T15:00:42;97219.56;;;24.44;99.34
44001;BME280;29660;42.892;24.710;2023-07-08T15:06:09;97114.16;;;23.62;98.15
44001;BME280;29660;42.892;24.710;2023-07-08T15:11:32;97107.66;;;23.40;98.52
44001;BME280;29660;42.892;24.710;2023-07-08T15:16:54;97173.50;;;23.75;99.32
44001;BME280;29660;42.892;24.710;2023-07-08T15:22:16;97216.69;;;24.04;100.00
44001;BME280;29660;42.892;24.710;2023-07-08T15:27:41;97211.34;;;24.11;100.00
44001;BME280;29660;42.892;24.710;2023-07-08T15:33:04;97189.03;;;23.71;100.00
44001;BME280;29660;42.892;24.710;2023-07-08T15:38:29;97199.31;;;23.59;100.00
44001;BME280;29660;42.892;24.710;2023-07-08T15:43:56;97216.66;;;23.73;100.00
44001;BME280;29660;42.892;24.710;2023-07-08T15:49:23;97215.16;;;23.76;100.00
44001;BME280;29660;42.892;24.710;2023-07-08T15:54:46;97174.44;;;23.34;100.00
44001;BME280;29660;42.892;24.710;2023-07-08T16:00:14;97153.66;;;23.22;100.00
44001;BME280;29660;42.892;24.710;2023-07-08T16:05:39;97210.44;;;23.50;100.00
44001;BME280;29660;42.892;24.710;2023-07-08T16:11:04;97234.84;;;23.43;100.00
44001;BME280;29660;42.892;24.710;2023-07-08T16:16:27;97098.38;;;22.45;100.00
44001;BME280;29660;42.892;24.710;2023-07-08T16:21:49;97135.41;;;22.76;100.00
44001;BME280;29660;42.892;24.710;2023-07-08T16:27:12;97238.50;;;23.27;100.00
44001;BME280;29660;42.892;24.710;2023-07-08T16:32:35;97218.41;;;23.13;100.00
44001;BME280;29660;42.892;24.710;2023-07-08T16:38:00;97222.41;;;22.96;100.00
44001;BME280;29660;42.892;24.710;2023-07-08T16:43:42;97202.25;;;22.77;100.00
44001;BME280;29660;42.892;24.710;2023-07-08T16:49:08;97222.59;;;22.64;100.00
44001;BME280;29660;42.892;24.710;2023-07-08T16:54:32;97226.53;;;22.47;100.00
44001;BME280;29660;42.892;24.710;2023-07-08T16:59:55;97227.06;;;22.34;100.00
44001;BME280;29660;42.892;24.710;2023-07-08T17:05:23;97233.63;;;22.13;100.00
44001;BME280;29660;42.892;24.710;2023-07-08T17:10:46;97224.00;;;22.00;100.00
44001;BME280;29660;42.892;24.710;2023-07-08T17:16:17;97237.84;;;21.95;100.00
44001;BME280;29660;42.892;24.710;2023-07-08T17:21:40;97230.69;;;21.87;100.00
44001;BME280;29660;42.892;24.710;2023-07-08T17:27:03;97175.81;;;21.42;100.00
44001;BME280;29660;42.892;24.710;2023-07-08T17:32:26;97073.53;;;20.60;100.00
44001;BME280;29660;42.892;24.710;2023-07-08T17:37:51;97140.75;;;20.86;100.00
44001;BME280;29660;42.892;24.710;2023-07-08T17:43:13;97239.63;;;21.36;100.00
44001;BME280;29660;42.892;24.710;2023-07-08T17:48:35;97246.44;;;21.30;100.00
44001;BME280;29660;42.892;24.710;2023-07-08T17:53:58;97211.59;;;20.84;100.00
44001;BME280;29660;42.892;24.710;2023-07-08T17:59:21;97232.50;;;21.00;100.00
44001;BME280;29660;42.892;24.710;2023-07-08T18:04:43;97254.28;;;21.19;100.00
44001;BME280;29660;42.892;24.710;2023-07-08T18:10:06;97167.22;;;20.61;100.00
44001;BME280;29660;42.892;24.710;2023-07-08T18:15:34;97252.34;;;21.04;100.00
44001;BME280;29660;42.892;24.710;2023-07-08T18:20:59;97270.47;;;21.00;100.00
44001;BME280;29660;42.892;24.710;2023-07-08T18:26:28;97264.28;;;20.71;100.00
44001;BME280;29660;42.892;24.710;2023-07-08T18:31:52;97273.06;;;20.52;100.00
44001;BME280;29660;42.892;24.710;2023-07-08T18:37:14;97274.09;;;20.35;100.00
44001;BME280;29660;42.892;24.710;2023-07-08T18:42:36;97276.25;;;20.30;100.00
44001;BME280;29660;42.892;24.710;2023-07-08T18:47:59;97275.47;;;20.29;100.00
44001;BME280;29660;42.892;24.710;2023-07-08T18:53:25;97202.59;;;19.72;100.00
44001;BME280;29660;42.892;24.710;2023-07-08T18:58:47;96882.09;;;17.59;100.00
44001;BME280;29660;42.892;24.710;2023-07-08T19:04:17;97296.59;;;20.11;100.00
44001;BME280;29660;42.892;24.710;2023-07-08T19:09:41;97271.13;;;20.13;100.00
44001;BME280;29660;42.892;24.710;2023-07-08T19:15:03;97288.69;;;20.19;100.00
44001;BME280;29660;42.892;24.710;2023-07-08T19:20:35;97284.78;;;20.04;100.00
44001;BME280;29660;42.892;24.710;2023-07-08T19:25:58;97184.13;;;19.12;100.00
44001;BME280;29660;42.892;24.710;2023-07-08T19:31:25;97246.00;;;19.51;100.00
44001;BME280;29660;42.892;24.710;2023-07-08T19:36:50;97298.47;;;19.71;100.00
44001;BME280;29660;42.892;24.710;2023-07-08T19:42:15;97289.09;;;19.80;100.00
44001;BME280;29660;42.892;24.710;2023-07-08T19:47:39;97294.06;;;19.78;100.00
44001;BME280;29660;42.892;24.710;2023-07-08T19:53:01;97285.94;;;19.78;100.00
44001;BME280;29660;42.892;24.710;2023-07-08T19:58:23;97286.84;;;19.82;100.00
44001;BME280;29660;42.892;24.710;2023-07-08T20:03:46;97191.47;;;19.12;100.00
44001;BME280;29660;42.892;24.710;2023-07-08T20:09:12;97207.47;;;19.17;100.00
44001;BME280;29660;42.892;24.710;2023-07-08T20:14:36;97189.09;;;18.98;100.00
44001;BME280;29660;42.892;24.710;2023-07-08T20:20:00;97286.63;;;19.63;100.00
44001;BME280;29660;42.892;24.710;2023-07-08T20:25:23;97287.53;;;19.67;100.00
44001;BME280;29660;42.892;24.710;2023-07-08T20:30:45;97296.31;;;19.64;100.00
44001;BME280;29660;42.892;24.710;2023-07-08T20:36:18;97265.16;;;19.33;100.00
44001;BME280;29660;42.892;24.710;2023-07-08T20:41:41;97296.66;;;19.63;100.00
44001;BME280;29660;42.892;24.710;2023-07-08T20:47:03;97295.59;;;19.55;100.00
44001;BME280;29660;42.892;24.710;2023-07-08T20:52:26;97192.91;;;18.97;100.00
44001;BME280;29660;42.892;24.710;2023-07-08T20:57:49;97293.25;;;19.53;100.00
44001;BME280;29660;42.892;24.710;2023-07-08T21:03:14;97305.75;;;19.58;100.00
44001;BME280;29660;42.892;24.710;2023-07-08T21:08:39;97318.16;;;19.59;100.00
44001;BME280;29660;42.892;24.710;2023-07-08T21:14:01;97301.03;;;19.55;100.00
44001;BME280;29660;42.892;24.710;2023-07-08T21:19:23;97303.72;;;19.55;100.00
44001;BME280;29660;42.892;24.710;2023-07-08T21:24:46;97314.91;;;19.53;100.00
44001;BME280;29660;42.892;24.710;2023-07-08T21:30:23;97297.19;;;19.56;100.00
44001;BME280;29660;42.892;24.710;2023-07-08T21:35:45;97303.94;;;19.50;100.00
44001;BME280;29660;42.892;24.710;2023-07-08T21:41:07;97264.59;;;19.28;100.00
44001;BME280;29660;42.892;24.710;2023-07-08T21:46:30;97186.28;;;18.82;100.00
44001;BME280;29660;42.892;24.710;2023-07-08T21:51:52;97304.06;;;19.53;100.00
44001;BME280;29660;42.892;24.710;2023-07-08T21:57:15;97306.66;;;19.50;100.00
44001;BME280;29660;42.892;24.710;2023-07-08T22:02:42;97302.34;;;19.49;100.00
44001;BME280;29660;42.892;24.710;2023-07-08T22:08:14;97303.94;;;19.50;100.00
44001;BME280;29660;42.892;24.710;2023-07-08T22:13:37;97235.72;;;18.95;100.00
44001;BME280;29660;42.892;24.710;2023-07-08T22:19:00;97311.38;;;19.41;100.00
44001;BME280;29660;42.892;24.710;2023-07-08T22:24:22;97315.31;;;19.43;100.00
44001;BME280;29660;42.892;24.710;2023-07-08T22:29:44;97313.63;;;19.38;100.00
44001;BME280;29660;42.892;24.710;2023-07-08T22:35:14;97145.19;;;18.44;100.00
44001;BME280;29660;42.892;24.710;2023-07-08T22:40:48;97187.81;;;18.71;100.00
44001;BME280;29660;42.892;24.710;2023-07-08T22:46:10;97300.28;;;19.21;100.00
44001;BME280;29660;42.892;24.710;2023-07-08T22:51:37;97219.66;;;18.45;100.00
44001;BME280;29660;42.892;24.710;2023-07-08T22:57:02;97188.50;;;18.14;100.00
44001;BME280;29660;42.892;24.710;2023-07-08T23:02:25;97306.66;;;18.92;100.00
44001;BME280;29660;42.892;24.710;2023-07-08T23:07:47;97179.28;;;18.15;100.00
44001;BME280;29660;42.892;24.710;2023-07-08T23:18:59;97299.19;;;18.89;100.00
44001;BME280;29660;42.892;24.710;2023-07-08T23:24:24;97298.88;;;18.91;100.00
44001;BME280;29660;42.892;24.710;2023-07-08T23:29:46;97230.84;;;18.55;100.00
44001;BME280;29660;42.892;24.710;2023-07-08T23:35:09;97293.47;;;18.91;100.00
44001;BME280;29660;42.892;24.710;2023-07-08T23:40:33;97273.31;;;18.88;100.00
44001;BME280;29660;42.892;24.710;2023-07-08T23:45:55;97292.13;;;18.97;100.00
44001;BME280;29660;42.892;24.710;2023-07-08T23:51:17;97262.25;;;18.81;100.00
44001;BME280;29660;42.892;24.710;2023-07-08T23:56:39;97288.38;;;18.89;100.00
